Time;durP1;ratioP1;P1;durP2;ratioP2;P2;SDS_P1;SDS_P2;PMS_P1;PMS_P2;Temp;Humidity;BMP_temperature;BMP_pressure;BME280_temperature;BME280_humidity;BME280_pressure;Samples;Min_cycle;Max_cycle;Signal;HPM_P1;HPM_P2
2021/10/19 00:00:12;;;;;;;24.90;14.80;;;15.70;88.80;;;;;;5045392;28;20260;-82
2021/10/19 00:02:39;;;;;;;28.50;15.85;;;15.90;89.00;;;;;;5040141;28;20731;-82
2021/10/19 00:05:06;;;;;;;20.50;14.77;;;15.80;88.90;;;;;;5055790;28;20299;-81
2021/10/19 00:07:32;;;;;;;22.83;15.65;;;15.70;89.20;;;;;;5035458;28;20190;-82
2021/10/19 00:09:59;;;;;;;23.40;16.55;;;15.60;89.70;;;;;;5049468;28;20251;-81
2021/10/19 00:12:24;;;;;;;20.88;14.98;;;15.70;90.00;;;;;;5045254;28;20648;-81
2021/10/19 00:14:50;;;;;;;23.50;15.60;;;15.90;89.80;;;;;;5036764;28;20212;-81
2021/10/19 00:17:16;;;;;;;23.43;16.27;;;16.10;89.50;;;;;;5043042;28;20416;-81
2021/10/19 00:19:42;;;;;;;20.53;15.43;;;16.20;89.10;;;;;;5063842;28;20236;-82
2021/10/19 00:22:08;;;;;;;22.20;15.98;;;16.20;88.80;;;;;;5052532;28;20236;-81
2021/10/19 00:24:33;;;;;;;22.20;16.70;;;15.90;88.70;;;;;;5033893;28;20216;-82
2021/10/19 00:26:59;;;;;;;25.53;16.90;;;15.80;89.40;;;;;;5042731;28;20186;-82
2021/10/19 00:29:25;;;;;;;27.77;16.93;;;15.80;90.00;;;;;;5051062;28;20202;-81
2021/10/19 00:31:52;;;;;;;21.23;15.30;;;15.90;90.30;;;;;;5048248;28;20428;-81
2021/10/19 00:34:18;;;;;;;21.48;15.05;;;15.80;90.00;;;;;;5002452;28;20202;-81
2021/10/19 00:36:44;;;;;;;39.42;18.70;;;15.80;90.40;;;;;;5036283;28;20177;-81
2021/10/19 00:39:10;;;;;;;21.23;15.77;;;15.80;90.80;;;;;;5050732;28;20184;-82
2021/10/19 00:41:36;;;;;;;22.00;16.50;;;15.80;91.30;;;;;;5040717;28;20192;-83
2021/10/19 00:44:02;;;;;;;25.40;16.70;;;15.80;90.90;;;;;;5036658;28;20526;-82
2021/10/19 00:46:28;;;;;;;25.50;17.95;;;15.90;91.10;;;;;;5038059;28;20188;-82
2021/10/19 00:48:53;;;;;;;22.67;16.10;;;15.90;91.00;;;;;;5036794;28;20257;-82
2021/10/19 00:51:20;;;;;;;26.00;16.57;;;15.90;91.20;;;;;;5033168;28;20250;-81
2021/10/19 00:53:46;;;;;;;19.30;15.30;;;15.60;91.70;;;;;;5020931;28;20628;-81
2021/10/19 00:56:12;;;;;;;26.60;18.33;;;15.80;92.30;;;;;;5050854;28;20185;-81
2021/10/19 00:58:40;;;;;;;22.52;16.83;;;15.80;92.30;;;;;;5019128;28;20425;-81
2021/10/19 01:01:06;;;;;;;21.80;16.02;;;15.60;92.60;;;;;;5035275;28;20668;-81
2021/10/19 01:03:33;;;;;;;24.42;15.73;;;15.80;93.00;;;;;;5017580;28;20208;-82
2021/10/19 01:06:02;;;;;;;21.10;15.43;;;15.90;93.00;;;;;;5033067;28;20204;-81
2021/10/19 01:08:29;;;;;;;22.52;15.93;;;15.90;92.80;;;;;;5034438;28;20232;-81
2021/10/19 01:10:55;;;;;;;19.35;14.60;;;15.80;92.50;;;;;;5035146;28;20202;-81
2021/10/19 01:13:21;;;;;;;18.98;14.63;;;15.80;92.60;;;;;;5033028;28;20272;-81
2021/10/19 01:15:47;;;;;;;20.05;15.15;;;15.80;92.70;;;;;;5047210;28;20224;-81
2021/10/19 01:18:15;;;;;;;23.70;16.00;;;15.90;92.70;;;;;;5019574;28;20648;-81
2021/10/19 01:20:41;;;;;;;24.73;16.58;;;15.80;92.50;;;;;;5034626;28;20550;-81
2021/10/19 01:23:08;;;;;;;21.88;15.23;;;15.80;92.60;;;;;;5035136;28;20215;-81
2021/10/19 01:25:34;;;;;;;22.95;15.80;;;15.70;92.90;;;;;;5018984;28;20177;-81
2021/10/19 01:28:10;;;;;;;22.42;15.50;;;15.70;93.40;;;;;;5036603;28;20540;-81
2021/10/19 01:30:43;;;;;;;21.58;14.43;;;15.70;93.50;;;;;;5018890;28;20212;-81
2021/10/19 01:33:09;;;;;;;24.38;14.95;;;15.70;93.50;;;;;;5036262;28;20177;-80
2021/10/19 01:35:40;;;;;;;21.38;14.95;;;15.70;93.40;;;;;;5031931;28;20192;-80
2021/10/19 01:38:11;;;;;;;22.10;14.63;;;15.60;93.80;;;;;;5034562;28;20307;-81
2021/10/19 01:40:36;;;;;;;16.88;12.20;;;15.60;93.90;;;;;;5037571;28;20181;-80
2021/10/19 01:43:07;;;;;;;16.92;13.25;;;15.60;94.10;;;;;;5037064;28;20185;-80
2021/10/19 01:45:33;;;;;;;16.65;12.50;;;15.80;94.20;;;;;;5038009;28;20249;-80
2021/10/19 01:47:58;;;;;;;17.83;12.70;;;15.70;94.00;;;;;;5037159;28;20217;-80
2021/10/19 01:50:24;;;;;;;16.17;11.87;;;15.60;93.90;;;;;;5036052;28;20206;-80
2021/10/19 01:52:50;;;;;;;20.00;12.73;;;15.80;94.10;;;;;;5018302;28;20178;-80
2021/10/19 01:55:16;;;;;;;17.10;13.07;;;15.90;94.00;;;;;;5039996;28;20252;-80
2021/10/19 01:57:42;;;;;;;18.00;12.77;;;15.80;93.60;;;;;;5049435;28;20216;-80
2021/10/19 02:00:11;;;;;;;17.93;13.17;;;15.80;93.70;;;;;;5041555;28;20485;-81
2021/10/19 02:02:45;;;;;;;18.52;13.25;;;15.70;93.70;;;;;;5042408;28;20192;-80
2021/10/19 02:05:12;;;;;;;16.17;13.20;;;15.80;94.00;;;;;;5046221;28;20224;-80
2021/10/19 02:07:38;;;;;;;18.30;11.80;;;15.80;93.80;;;;;;5034221;28;20213;-80
2021/10/19 02:10:05;;;;;;;17.00;12.05;;;15.90;93.70;;;;;;5040661;28;20677;-80
2021/10/19 02:12:32;;;;;;;18.17;11.95;;;16.00;93.50;;;;;;5047083;28;20181;-80
2021/10/19 02:14:57;;;;;;;15.85;11.90;;;15.90;93.20;;;;;;5054510;28;20627;-81
2021/10/19 02:17:23;;;;;;;15.03;12.87;;;15.80;93.20;;;;;;5053111;28;20193;-80
2021/10/19 02:19:49;;;;;;;16.83;11.63;;;16.00;93.40;;;;;;5055869;28;20185;-81
2021/10/19 02:22:14;;;;;;;13.63;11.07;;;16.00;93.30;;;;;;5039332;28;20193;-81
2021/10/19 02:24:40;;;;;;;17.10;11.60;;;16.10;93.10;;;;;;5056082;28;20198;-81
2021/10/19 02:27:06;;;;;;;15.33;11.47;;;16.00;92.80;;;;;;5040777;28;20232;-81
2021/10/19 02:29:32;;;;;;;18.57;12.10;;;16.00;92.70;;;;;;5063900;28;20217;-81
2021/10/19 02:31:57;;;;;;;15.03;12.10;;;16.00;92.80;;;;;;5039245;28;20417;-81
2021/10/19 02:34:23;;;;;;;14.00;10.67;;;16.10;92.80;;;;;;5054706;28;20202;-81
2021/10/19 02:36:50;;;;;;;13.77;11.23;;;16.10;92.70;;;;;;5045094;28;20542;-81
2021/10/19 02:39:16;;;;;;;14.93;11.35;;;16.20;92.40;;;;;;5049459;28;20459;-80
2021/10/19 02:41:41;;;;;;;12.57;10.87;;;16.20;92.30;;;;;;5038882;28;20186;-81
2021/10/19 02:44:07;;;;;;;16.70;12.27;;;16.20;92.30;;;;;;5038344;28;20205;-81
2021/10/19 02:46:33;;;;;;;17.77;11.93;;;16.20;92.20;;;;;;5055438;28;20623;-81
2021/10/19 02:49:00;;;;;;;12.55;11.00;;;16.20;92.00;;;;;;5042590;28;20178;-80
2021/10/19 02:51:26;;;;;;;19.08;12.38;;;16.30;92.00;;;;;;5057362;28;20687;-82
2021/10/19 02:53:56;;;;;;;13.33;9.77;;;16.30;91.80;;;;;;5039701;28;20201;-81
2021/10/19 02:56:22;;;;;;;16.75;11.25;;;16.30;91.70;;;;;;5040328;28;20424;-81
2021/10/19 02:58:48;;;;;;;15.38;11.85;;;16.30;91.70;;;;;;5058733;28;20583;-81
2021/10/19 03:01:14;;;;;;;13.80;10.90;;;16.20;91.50;;;;;;5044107;28;20189;-81
2021/10/19 03:03:40;;;;;;;16.15;11.65;;;16.30;91.70;;;;;;5047890;28;20435;-81
2021/10/19 03:06:06;;;;;;;19.53;12.53;;;16.30;91.80;;;;;;5040041;28;20229;-81
2021/10/19 03:08:31;;;;;;;13.17;10.60;;;16.20;91.70;;;;;;5022585;28;20178;-82
2021/10/19 03:10:57;;;;;;;14.53;11.60;;;16.30;92.00;;;;;;5023464;28;20453;-82
2021/10/19 03:13:24;;;;;;;15.97;12.00;;;16.40;91.80;;;;;;5040297;28;20870;-81
2021/10/19 03:15:50;;;;;;;15.68;12.20;;;16.40;91.70;;;;;;5022370;28;20174;-81
2021/10/19 03:18:16;;;;;;;16.55;13.45;;;16.40;91.40;;;;;;5041087;28;20178;-81
2021/10/19 03:20:42;;;;;;;15.90;11.90;;;16.40;91.40;;;;;;5039087;28;20170;-80
2021/10/19 03:23:08;;;;;;;16.88;12.02;;;16.30;91.60;;;;;;5040476;28;20796;-81
2021/10/19 03:25:34;;;;;;;13.80;12.32;;;16.20;91.60;;;;;;5051605;28;20182;-82
2021/10/19 03:28:00;;;;;;;15.60;12.13;;;16.30;92.10;;;;;;5042039;28;20180;-81
2021/10/19 03:30:26;;;;;;;18.70;13.20;;;16.20;92.00;;;;;;5043234;28;20486;-81
2021/10/19 03:32:51;;;;;;;17.70;11.27;;;16.40;92.10;;;;;;5058827;28;20236;-81
2021/10/19 03:35:17;;;;;;;14.17;11.63;;;16.40;92.00;;;;;;5041209;28;20184;-81
2021/10/19 03:37:43;;;;;;;13.00;11.40;;;16.40;91.90;;;;;;5037643;28;20174;-81
2021/10/19 03:40:09;;;;;;;13.57;11.30;;;16.50;92.00;;;;;;5036577;28;20178;-82
2021/10/19 03:42:38;;;;;;;14.00;11.30;;;16.50;91.80;;;;;;5044558;28;20186;-82
2021/10/19 03:45:05;;;;;;;16.42;11.88;;;16.60;91.70;;;;;;5020610;28;20205;-81
2021/10/19 03:47:30;;;;;;;12.05;10.70;;;16.60;91.60;;;;;;5029969;28;20201;-81
2021/10/19 03:49:56;;;;;;;14.80;12.53;;;16.50;91.60;;;;;;5023666;28;20209;-81
2021/10/19 03:52:22;;;;;;;13.67;11.67;;;16.50;91.70;;;;;;5036657;28;20180;-82
2021/10/19 03:54:47;;;;;;;13.60;11.33;;;16.50;91.60;;;;;;5037631;28;20668;-82
2021/10/19 03:57:13;;;;;;;14.97;11.20;;;16.60;91.60;;;;;;5035540;28;20177;-82
2021/10/19 03:59:39;;;;;;;16.60;12.00;;;16.60;91.60;;;;;;5038831;28;20424;-82
2021/10/19 04:02:05;;;;;;;15.60;12.10;;;16.60;91.60;;;;;;5036415;28;20178;-82
2021/10/19 04:04:33;;;;;;;16.33;12.57;;;16.60;91.60;;;;;;5015560;28;20220;-82
2021/10/19 04:06:59;;;;;;;16.40;11.65;;;16.70;91.50;;;;;;5052986;28;20178;-81
2021/10/19 04:09:25;;;;;;;15.60;12.67;;;16.60;91.30;;;;;;5050474;28;20254;-81
2021/10/19 04:11:50;;;;;;;15.10;11.77;;;16.60;91.50;;;;;;5042035;28;20170;-81
2021/10/19 04:14:16;;;;;;;17.60;12.57;;;16.60;91.50;;;;;;5043928;28;20691;-81
2021/10/19 04:16:42;;;;;;;16.40;12.77;;;16.60;91.50;;;;;;5041951;28;20174;-81
2021/10/19 04:19:08;;;;;;;17.50;13.30;;;16.70;91.60;;;;;;5052054;28;20198;-81
2021/10/19 04:21:33;;;;;;;17.90;13.70;;;16.70;91.40;;;;;;5051832;28;20185;-81
2021/10/19 04:23:59;;;;;;;16.70;12.23;;;16.80;91.10;;;;;;5051895;28;20202;-81
2021/10/19 04:26:25;;;;;;;20.20;13.77;;;16.80;91.10;;;;;;5053966;28;20184;-81
2021/10/19 04:28:50;;;;;;;14.70;12.40;;;16.80;91.10;;;;;;5042241;28;20186;-81
2021/10/19 04:31:16;;;;;;;16.67;13.40;;;16.80;91.20;;;;;;5039520;28;20182;-81
2021/10/19 04:33:42;;;;;;;15.83;12.60;;;16.80;91.10;;;;;;5038876;28;20202;-81
2021/10/19 04:36:08;;;;;;;16.47;12.97;;;16.70;91.00;;;;;;5055293;28;20178;-81
2021/10/19 04:38:35;;;;;;;15.40;11.90;;;16.70;91.40;;;;;;5047108;28;20178;-81
2021/10/19 04:41:02;;;;;;;17.52;12.43;;;16.80;91.40;;;;;;5041241;28;20435;-81
2021/10/19 04:43:28;;;;;;;13.77;11.00;;;16.80;91.40;;;;;;5038904;28;20240;-81
2021/10/19 04:45:54;;;;;;;16.67;11.57;;;16.70;91.40;;;;;;5039903;28;20182;-81
2021/10/19 04:48:21;;;;;;;15.75;12.02;;;16.80;91.50;;;;;;5045887;28;20249;-81
2021/10/19 04:50:48;;;;;;;16.52;11.40;;;16.70;91.70;;;;;;5042697;28;20548;-81
2021/10/19 04:53:14;;;;;;;15.02;12.77;;;16.70;91.70;;;;;;5039627;28;20212;-81
2021/10/19 04:55:40;;;;;;;19.27;12.23;;;16.70;92.10;;;;;;5037865;28;20182;-81
2021/10/19 04:58:05;;;;;;;14.50;11.83;;;16.80;92.20;;;;;;5038505;28;20204;-81
2021/10/19 05:00:31;;;;;;;13.77;11.00;;;16.90;92.30;;;;;;5055303;28;20652;-81
2021/10/19 05:02:57;;;;;;;17.57;12.60;;;16.90;92.00;;;;;;5046097;28;20178;-81
2021/10/19 05:05:24;;;;;;;16.08;12.65;;;16.90;91.90;;;;;;5045143;28;20200;-80
2021/10/19 05:07:50;;;;;;;18.02;12.70;;;16.80;91.80;;;;;;5039381;28;20205;-80
2021/10/19 05:10:16;;;;;;;17.77;12.37;;;16.80;91.80;;;;;;5027964;28;20576;-80
2021/10/19 05:12:44;;;;;;;18.88;12.82;;;16.90;91.90;;;;;;5049044;28;20188;-81
2021/10/19 05:15:10;;;;;;;16.40;12.85;;;16.90;91.70;;;;;;5040395;28;20567;-80
2021/10/19 05:17:36;;;;;;;17.05;13.60;;;17.00;91.50;;;;;;5047524;28;20178;-81
2021/10/19 05:20:04;;;;;;;17.05;13.55;;;17.00;91.60;;;;;;5039330;28;20197;-80
2021/10/19 05:22:30;;;;;;;21.70;14.70;;;17.00;91.50;;;;;;5040669;28;20277;-80
2021/10/19 05:24:56;;;;;;;16.58;13.85;;;17.00;91.50;;;;;;5040721;28;20197;-81
2021/10/19 05:27:22;;;;;;;15.73;12.27;;;16.90;91.80;;;;;;5027424;28;20201;-81
2021/10/19 05:29:48;;;;;;;16.83;13.37;;;17.00;91.60;;;;;;5052188;28;20197;-81
2021/10/19 05:32:14;;;;;;;17.70;12.80;;;17.00;91.70;;;;;;5046089;28;20420;-82
2021/10/19 05:34:40;;;;;;;23.83;13.13;;;17.00;91.70;;;;;;5044514;28;20472;-82
2021/10/19 05:37:06;;;;;;;22.17;13.88;;;16.90;91.90;;;;;;5042078;28;20415;-82
2021/10/19 05:39:31;;;;;;;19.47;14.60;;;16.80;92.10;;;;;;5055303;28;20213;-82
2021/10/19 05:41:59;;;;;;;18.37;13.57;;;16.90;92.20;;;;;;5046529;28;20495;-82
2021/10/19 05:44:25;;;;;;;24.02;15.68;;;17.00;92.10;;;;;;5044736;28;20220;-81
2021/10/19 05:46:51;;;;;;;18.30;13.15;;;17.00;92.10;;;;;;5041133;28;20193;-81
2021/10/19 05:49:17;;;;;;;18.40;13.07;;;17.00;92.10;;;;;;5033376;28;20288;-81
2021/10/19 05:51:43;;;;;;;23.93;13.40;;;17.00;92.10;;;;;;5060640;28;20212;-81
2021/10/19 05:54:13;;;;;;;18.95;13.05;;;17.00;92.20;;;;;;5047837;28;20200;-81
2021/10/19 05:56:39;;;;;;;22.40;12.65;;;17.00;92.10;;;;;;5053866;28;20178;-80
2021/10/19 05:59:05;;;;;;;20.13;12.65;;;17.10;92.10;;;;;;5046917;28;20192;-80
2021/10/19 06:01:31;;;;;;;14.70;11.73;;;17.00;91.80;;;;;;5051507;28;20190;-79
2021/10/19 06:03:57;;;;;;;18.17;14.10;;;17.10;92.10;;;;;;5054495;28;20201;-82
2021/10/19 06:06:22;;;;;;;14.90;11.93;;;17.20;91.90;;;;;;5055068;28;20208;-80
2021/10/19 06:08:51;;;;;;;17.33;12.93;;;17.10;91.90;;;;;;5058510;28;20184;-81
2021/10/19 06:11:18;;;;;;;16.33;12.02;;;17.20;91.80;;;;;;5056418;28;20178;-81
2021/10/19 06:13:43;;;;;;;16.40;11.30;;;17.10;91.60;;;;;;5061155;28;20197;-81
2021/10/19 06:16:09;;;;;;;14.13;12.47;;;17.10;91.70;;;;;;5056773;28;20169;-81
2021/10/19 06:18:35;;;;;;;15.50;11.90;;;17.10;91.80;;;;;;5047087;28;20189;-81
2021/10/19 06:21:01;;;;;;;16.53;12.80;;;17.10;91.70;;;;;;5051039;28;20705;-81
2021/10/19 06:23:28;;;;;;;17.30;12.38;;;17.10;91.90;;;;;;5049715;28;20197;-81
2021/10/19 06:25:54;;;;;;;18.77;14.57;;;17.20;91.90;;;;;;5073131;28;20655;-81
2021/10/19 06:28:20;;;;;;;16.80;12.10;;;17.20;91.80;;;;;;5074374;28;20193;-80
2021/10/19 06:30:45;;;;;;;16.17;11.77;;;17.20;91.70;;;;;;5055558;28;20201;-81
2021/10/19 06:33:11;;;;;;;15.50;11.80;;;17.20;91.70;;;;;;5053815;28;20431;-81
2021/10/19 06:35:37;;;;;;;18.53;11.83;;;17.20;91.70;;;;;;5072668;28;20192;-81
2021/10/19 06:38:03;;;;;;;15.82;12.75;;;17.20;91.80;;;;;;5068557;28;20245;-81
2021/10/19 06:40:29;;;;;;;15.77;13.30;;;17.30;91.90;;;;;;5053216;28;20178;-80
2021/10/19 06:42:55;;;;;;;21.88;12.70;;;17.30;91.90;;;;;;5050303;28;20416;-82
2021/10/19 06:45:20;;;;;;;16.83;12.73;;;17.30;91.70;;;;;;5057619;28;20192;-81
2021/10/19 06:47:46;;;;;;;15.83;12.47;;;17.30;91.70;;;;;;5057794;28;20185;-80
2021/10/19 06:50:12;;;;;;;15.67;11.20;;;17.30;91.70;;;;;;5054104;28;20239;-80
2021/10/19 06:52:38;;;;;;;16.60;13.03;;;17.30;91.80;;;;;;5037864;28;20166;-81
2021/10/19 06:55:05;;;;;;;14.27;10.73;;;17.30;91.90;;;;;;5037126;28;20197;-82
2021/10/19 06:57:31;;;;;;;13.65;11.27;;;17.30;91.90;;;;;;5038494;28;20420;-84
2021/10/19 07:00:03;;;;;;;26.23;11.97;;;17.40;91.90;;;;;;5046363;28;20241;-81
2021/10/19 07:02:29;;;;;;;13.73;11.30;;;17.30;92.00;;;;;;5039530;28;20434;-82
2021/10/19 07:04:55;;;;;;;14.63;11.47;;;17.20;91.90;;;;;;5072927;28;20216;-82
2021/10/19 07:07:21;;;;;;;12.83;10.90;;;17.10;92.50;;;;;;5074824;28;20187;-82
2021/10/19 07:09:46;;;;;;;13.20;10.90;;;17.20;92.80;;;;;;5056247;28;20575;-82
2021/10/19 07:12:12;;;;;;;14.67;11.07;;;17.30;92.80;;;;;;5073856;28;20173;-81
2021/10/19 07:14:38;;;;;;;15.27;11.97;;;17.30;92.80;;;;;;5072340;28;20218;-82
2021/10/19 07:17:03;;;;;;;15.10;11.93;;;17.10;92.60;;;;;;5056641;28;20420;-82
2021/10/19 07:19:29;;;;;;;15.60;11.00;;;17.20;93.00;;;;;;5073785;28;20195;-82
2021/10/19 07:21:55;;;;;;;13.30;10.70;;;17.20;93.10;;;;;;5055766;28;20181;-82
2021/10/19 07:24:21;;;;;;;15.60;11.30;;;17.30;93.10;;;;;;5073815;28;20212;-85
2021/10/19 07:26:47;;;;;;;14.75;11.80;;;17.30;92.80;;;;;;5074958;28;20188;-85
2021/10/19 07:29:13;;;;;;;14.32;10.80;;;17.40;92.80;;;;;;5073225;28;20201;-85
2021/10/19 07:31:39;;;;;;;13.33;10.37;;;17.30;92.80;;;;;;5072793;28;20181;-84
2021/10/19 07:34:05;;;;;;;16.15;11.82;;;17.40;92.80;;;;;;5073064;28;20217;-82
2021/10/19 07:36:32;;;;;;;17.52;11.35;;;17.40;92.50;;;;;;5073120;28;20180;-81
2021/10/19 07:38:57;;;;;;;17.58;12.68;;;17.30;92.50;;;;;;5056475;28;20177;-81
2021/10/19 07:41:23;;;;;;;16.03;12.03;;;17.40;92.50;;;;;;5054414;28;20237;-82
2021/10/19 07:43:49;;;;;;;19.27;13.00;;;17.30;92.50;;;;;;5036547;28;20436;-83
2021/10/19 07:46:14;;;;;;;18.83;14.03;;;17.40;92.40;;;;;;5071937;28;20244;-83
2021/10/19 07:48:40;;;;;;;15.90;11.97;;;17.50;92.50;;;;;;5057381;28;20215;-83
2021/10/19 07:51:06;;;;;;;19.23;14.33;;;17.40;92.20;;;;;;5055879;28;20198;-83
2021/10/19 07:53:31;;;;;;;20.93;11.63;;;17.50;92.40;;;;;;5037072;28;20198;-83
2021/10/19 07:55:58;;;;;;;18.73;13.03;;;17.60;92.40;;;;;;5055691;28;20166;-83
2021/10/19 07:58:24;;;;;;;19.90;14.48;;;17.60;92.20;;;;;;5037966;28;20205;-82
2021/10/19 08:00:50;;;;;;;19.27;13.73;;;17.60;92.20;;;;;;5055451;28;20190;-83
2021/10/19 08:03:16;;;;;;;17.33;13.20;;;17.60;92.10;;;;;;5038520;28;20190;-83
2021/10/19 08:05:42;;;;;;;18.13;13.10;;;17.60;92.00;;;;;;5067713;28;20753;-83
2021/10/19 08:08:16;;;;;;;24.33;15.35;;;17.50;92.00;;;;;;5075369;28;20173;-83
2021/10/19 08:10:44;;;;;;;33.75;18.80;;;17.60;91.80;;;;;;5077047;28;20208;-83
2021/10/19 08:13:10;;;;;;;26.15;16.88;;;17.60;91.90;;;;;;5075623;28;21004;-83
2021/10/19 08:15:40;;;;;;;29.47;18.40;;;17.60;91.90;;;;;;5075601;28;20181;-82
2021/10/19 08:18:07;;;;;;;32.15;19.00;;;17.70;91.90;;;;;;5075463;28;20149;-83
2021/10/19 08:20:34;;;;;;;26.85;17.73;;;17.60;91.90;;;;;;5059034;28;20189;-83
2021/10/19 08:23:00;;;;;;;29.55;18.10;;;17.70;92.10;;;;;;5074782;28;20204;-83
2021/10/19 08:25:28;;;;;;;30.63;19.10;;;17.80;92.10;;;;;;5074826;28;20165;-83
2021/10/19 08:27:55;;;;;;;27.88;19.08;;;17.70;91.90;;;;;;5075676;28;20427;-83
2021/10/19 08:30:22;;;;;;;26.25;17.70;;;17.60;92.10;;;;;;5074436;28;20209;-83
2021/10/19 08:32:49;;;;;;;32.17;20.25;;;17.80;92.20;;;;;;5073402;28;20231;-83
2021/10/19 08:35:15;;;;;;;31.83;17.27;;;17.80;92.10;;;;;;5070612;28;20197;-83
2021/10/19 08:37:42;;;;;;;34.95;21.33;;;17.80;92.10;;;;;;5072711;28;20197;-86
2021/10/19 08:40:09;;;;;;;32.35;20.30;;;17.70;92.20;;;;;;5074433;28;20168;-84
2021/10/19 08:42:42;;;;;;;36.30;20.63;;;17.70;92.50;;;;;;5072129;28;20165;-83
2021/10/19 08:45:09;;;;;;;30.88;18.60;;;17.80;92.40;;;;;;5061647;28;20226;-84
2021/10/19 08:47:35;;;;;;;31.02;18.88;;;17.80;92.30;;;;;;5071723;28;20161;-84
2021/10/19 08:50:03;;;;;;;32.23;18.70;;;17.90;92.40;;;;;;5053987;28;20219;-84
2021/10/19 08:52:28;;;;;;;29.90;18.50;;;17.90;92.40;;;;;;5073274;28;20177;-82
2021/10/19 08:54:54;;;;;;;30.90;20.20;;;17.90;92.30;;;;;;5067068;28;20208;-82
2021/10/19 08:57:20;;;;;;;42.10;20.10;;;18.00;92.20;;;;;;5058965;28;20230;-84
2021/10/19 08:59:48;;;;;;;32.37;19.43;;;18.00;92.00;;;;;;5054871;28;20655;-84
2021/10/19 09:02:15;;;;;;;31.17;20.05;;;18.00;92.00;;;;;;5039414;28;20651;-83
2021/10/19 09:04:42;;;;;;;32.72;19.83;;;18.00;92.70;;;;;;5045030;28;20259;-83
2021/10/19 09:07:08;;;;;;;28.00;19.60;;;18.00;92.20;;;;;;5058671;28;20169;-83
2021/10/19 09:09:35;;;;;;;31.20;20.52;;;18.00;92.30;;;;;;5061787;28;20204;-82
2021/10/19 09:12:02;;;;;;;33.80;20.25;;;18.00;92.40;;;;;;5061691;28;20171;-82
2021/10/19 09:14:38;;;;;;;31.63;19.95;;;18.10;92.60;;;;;;5060013;28;20222;-82
2021/10/19 09:17:04;;;;;;;33.35;19.05;;;18.00;92.40;;;;;;5059868;28;20184;-82
2021/10/19 09:19:31;;;;;;;28.40;18.92;;;18.10;92.40;;;;;;5044128;28;20549;-82
2021/10/19 09:22:03;;;;;;;32.28;21.02;;;18.20;92.30;;;;;;5061808;28;20177;-82
2021/10/19 09:24:37;;;;;;;38.85;18.58;;;18.30;92.20;;;;;;5061047;28;20201;-82
2021/10/19 09:27:06;;;;;;;37.78;19.73;;;18.10;92.00;;;;;;5061680;28;20177;-82
2021/10/19 09:29:36;;;;;;;33.17;19.27;;;18.20;92.10;;;;;;5059323;28;20209;-82
2021/10/19 09:32:06;;;;;;;27.50;17.70;;;18.30;92.00;;;;;;5057833;28;20176;-82
2021/10/19 09:34:33;;;;;;;30.30;18.73;;;18.30;91.80;;;;;;5059330;28;20193;-82
2021/10/19 09:37:01;;;;;;;32.60;19.65;;;18.30;91.90;;;;;;5059516;28;20184;-82
2021/10/19 09:39:29;;;;;;;36.88;18.92;;;18.50;91.80;;;;;;5058560;28;20662;-83
2021/10/19 09:41:55;;;;;;;29.40;17.48;;;18.40;91.30;;;;;;5058424;28;20210;-82
2021/10/19 09:44:20;;;;;;;25.40;16.77;;;18.40;91.20;;;;;;5059130;28;20735;-82
2021/10/19 09:46:47;;;;;;;23.50;15.50;;;18.50;91.40;;;;;;5058287;28;20181;-83
2021/10/19 09:49:14;;;;;;;25.52;15.80;;;18.60;91.20;;;;;;5057811;28;20172;-83
2021/10/19 09:51:40;;;;;;;30.27;17.23;;;18.80;91.10;;;;;;5058144;28;20259;-82
2021/10/19 09:54:08;;;;;;;28.27;16.73;;;18.80;90.80;;;;;;5056418;28;20197;-83
2021/10/19 09:56:39;;;;;;;23.67;17.48;;;18.80;90.40;;;;;;5057626;28;20458;-84
2021/10/19 09:59:06;;;;;;;19.55;15.00;;;18.80;90.10;;;;;;5056896;28;20252;-84
2021/10/19 10:01:33;;;;;;;18.00;14.70;;;18.80;90.10;;;;;;5053445;28;20192;-84
2021/10/19 10:03:59;;;;;;;27.30;15.82;;;19.00;90.80;;;;;;5037430;28;20217;-84
2021/10/19 10:06:29;;;;;;;19.52;13.52;;;19.00;89.90;;;;;;5056122;28;20200;-84
2021/10/19 10:08:56;;;;;;;23.67;13.25;;;19.00;90.00;;;;;;5057483;28;20211;-85
2021/10/19 10:11:22;;;;;;;25.40;14.02;;;19.10;90.10;;;;;;5058051;28;20247;-85
2021/10/19 10:14:00;;;;;;;19.58;14.30;;;19.20;89.70;;;;;;5055865;28;20212;-84
2021/10/19 10:16:26;;;;;;;17.75;13.48;;;19.30;89.40;;;;;;5056269;28;20173;-85
2021/10/19 10:18:53;;;;;;;18.17;12.73;;;19.30;89.10;;;;;;5058129;28;20725;-85
2021/10/19 10:21:21;;;;;;;15.15;12.40;;;19.30;88.70;;;;;;5059535;28;20179;-84
2021/10/19 10:24:04;;;;;;;15.95;11.40;;;19.30;88.70;;;;;;5059209;28;20306;-83
2021/10/19 10:26:34;;;;;;;14.80;10.70;;;19.20;88.70;;;;;;5062886;28;20154;-83
2021/10/19 10:29:07;;;;;;;13.63;10.48;;;19.30;88.80;;;;;;5061215;28;20247;-83
2021/10/19 10:31:47;;;;;;;13.00;11.10;;;19.30;88.70;;;;;;5041396;28;20174;-83
2021/10/19 10:34:14;;;;;;;23.60;11.48;;;19.30;88.70;;;;;;5041618;28;20193;-83
2021/10/19 10:36:45;;;;;;;14.07;9.82;;;19.30;88.80;;;;;;5041501;28;20542;-83
2021/10/19 10:39:12;;;;;;;14.95;10.43;;;19.10;88.70;;;;;;5041345;28;20505;-83
2021/10/19 10:41:41;;;;;;;14.90;10.40;;;19.20;89.10;;;;;;5042594;28;20196;-86
2021/10/19 10:44:09;;;;;;;11.75;9.68;;;19.20;89.10;;;;;;5037472;28;20201;-87
2021/10/19 10:46:35;;;;;;;12.80;9.65;;;19.40;89.10;;;;;;5040323;28;20182;-84
2021/10/19 10:49:01;;;;;;;13.80;10.03;;;19.30;88.80;;;;;;5042204;28;20197;-84
2021/10/19 10:51:31;;;;;;;15.30;11.20;;;19.50;89.10;;;;;;5062340;28;20447;-84
2021/10/19 10:53:57;;;;;;;12.43;9.35;;;19.50;88.80;;;;;;5062568;28;20264;-83
2021/10/19 10:56:24;;;;;;;10.82;9.63;;;19.50;88.70;;;;;;5062480;28;20662;-84
2021/10/19 10:58:50;;;;;;;9.95;8.48;;;19.40;88.70;;;;;;5062889;28;20184;-84
2021/10/19 11:01:28;;;;;;;12.43;9.50;;;19.30;89.00;;;;;;5057238;28;20243;-84
2021/10/19 11:04:03;;;;;;;11.88;9.35;;;19.50;89.00;;;;;;5046064;28;20221;-84
2021/10/19 11:06:28;;;;;;;8.30;7.18;;;19.50;88.60;;;;;;5060914;28;20248;-84
2021/10/19 11:09:05;;;;;;;9.27;8.03;;;19.60;88.40;;;;;;5062076;28;20216;-84
2021/10/19 11:11:36;;;;;;;9.63;7.25;;;19.60;88.20;;;;;;5044245;28;20188;-83
2021/10/19 11:14:13;;;;;;;14.52;8.32;;;19.60;88.30;;;;;;5027313;28;20599;-83
2021/10/19 11:16:45;;;;;;;9.05;7.07;;;19.60;88.40;;;;;;5043774;28;20260;-83
2021/10/19 11:19:21;;;;;;;10.23;8.30;;;19.60;88.20;;;;;;5060571;28;20181;-83
2021/10/19 11:21:51;;;;;;;12.38;9.70;;;19.70;88.20;;;;;;5044007;28;20521;-83
2021/10/19 11:24:18;;;;;;;15.43;7.90;;;19.80;87.80;;;;;;5061884;28;20197;-83
2021/10/19 11:26:45;;;;;;;8.43;7.60;;;19.90;87.70;;;;;;5044610;28;20584;-83
2021/10/19 11:29:11;;;;;;;8.52;7.70;;;20.20;87.40;;;;;;5044346;28;20181;-84
2021/10/19 11:31:38;;;;;;;8.02;6.35;;;20.30;86.90;;;;;;5062046;28;20199;-83
2021/10/19 11:34:05;;;;;;;15.35;7.28;;;20.40;86.60;;;;;;5060869;28;20193;-81
2021/10/19 11:36:31;;;;;;;12.85;7.72;;;20.60;86.20;;;;;;5025718;28;20191;-81
2021/10/19 11:39:00;;;;;;;8.35;7.15;;;20.70;85.30;;;;;;5042099;28;20708;-82
2021/10/19 11:41:28;;;;;;;14.73;7.60;;;20.70;85.10;;;;;;5060317;28;20178;-85
2021/10/19 11:44:03;;;;;;;8.35;6.35;;;20.90;84.60;;;;;;5039527;28;20213;-86
2021/10/19 11:46:31;;;;;;;8.90;7.28;;;20.90;84.80;;;;;;5059984;28;20168;-83
2021/10/19 11:49:03;;;;;;;7.35;6.50;;;20.90;84.00;;;;;;5042440;28;20185;-84
2021/10/19 11:51:29;;;;;;;8.43;6.47;;;21.00;83.80;;;;;;5042552;28;20171;-84
2021/10/19 11:53:59;;;;;;;8.57;6.82;;;21.00;83.50;;;;;;5042117;28;20201;-83
2021/10/19 11:56:24;;;;;;;7.18;6.22;;;20.80;83.20;;;;;;5059963;28;20578;-84
2021/10/19 11:59:06;;;;;;;8.07;6.40;;;20.80;83.30;;;;;;5060849;28;20169;-84
2021/10/19 12:01:41;;;;;;;9.07;6.07;;;20.60;83.10;;;;;;5042492;28;20926;-84
2021/10/19 12:04:12;;;;;;;6.60;5.75;;;20.60;83.50;;;;;;5038927;28;20300;-84
2021/10/19 12:06:45;;;;;;;8.93;5.90;;;20.60;83.60;;;;;;5040604;28;20178;-84
2021/10/19 12:09:18;;;;;;;6.10;5.10;;;20.50;83.80;;;;;;5040775;28;20159;-83
2021/10/19 12:11:56;;;;;;;6.95;5.85;;;20.50;84.10;;;;;;5057046;28;20229;-84
2021/10/19 12:14:39;;;;;;;7.25;5.22;;;20.30;84.40;;;;;;5058805;28;20204;-83
2021/10/19 12:17:07;;;;;;;7.75;7.05;;;20.50;85.40;;;;;;5060308;28;20154;-84
2021/10/19 12:19:34;;;;;;;6.25;5.15;;;20.40;84.60;;;;;;5058780;28;20182;-84
2021/10/19 12:22:04;;;;;;;6.85;5.97;;;20.30;84.80;;;;;;5060447;28;20248;-83
2021/10/19 12:24:36;;;;;;;6.28;4.97;;;20.40;84.80;;;;;;5042804;28;20725;-83
2021/10/19 12:27:07;;;;;;;7.38;5.82;;;20.30;85.00;;;;;;5059253;28;20185;-83